Time;durP1;ratioP1;P1;durP2;ratioP2;P2;SDS_P1;SDS_P2;PMS_P1;PMS_P2;Temp;Humidity;BMP_temperature;BMP_pressure;BME280_temperature;BME280_humidity;BME280_pressure;Samples;Min_cycle;Max_cycle;Signal;HPM_P1;HPM_P2
2022/08/10 00:02:12;;;;;;;30.73;3.10;;;39.10;54.00;;;;;;5034869;28;20396;-66
2022/08/10 00:04:39;;;;;;;31.65;3.75;;;38.80;41.80;;;;;;5040205;28;20078;-65
2022/08/10 00:07:05;;;;;;;39.63;3.47;;;38.70;42.30;;;;;;5034819;28;20500;-66
2022/08/10 00:09:32;;;;;;;26.40;3.35;;;38.50;42.40;;;;;;5043771;28;20051;-66
2022/08/10 00:11:58;;;;;;;29.02;3.58;;;38.40;43.30;;;;;;5038078;28;20040;-65
2022/08/10 00:14:25;;;;;;;20.52;3.42;;;38.20;43.50;;;;;;5038014;28;20029;-64
2022/08/10 00:16:51;;;;;;;100.68;8.25;;;37.80;58.30;;;;;;5038567;28;20178;-62
2022/08/10 00:19:18;;;;;;;67.95;7.55;;;37.80;46.40;;;;;;5035618;28;20055;-63
2022/08/10 00:21:45;;;;;;;48.10;6.55;;;37.20;48.80;;;;;;5035645;28;20408;-65
2022/08/10 00:24:12;;;;;;;33.80;4.90;;;36.70;50.10;;;;;;5037184;28;20072;-66
2022/08/10 00:26:41;;;;;;;38.10;5.00;;;36.40;50.60;;;;;;5036370;28;20112;-61
2022/08/10 00:29:08;;;;;;;41.47;4.18;;;36.10;51.10;;;;;;5037456;28;20100;-63
2022/08/10 00:31:34;;;;;;;24.40;3.20;;;35.90;51.30;;;;;;5019773;28;20100;-64
2022/08/10 00:34:01;;;;;;;26.70;3.75;;;35.70;64.30;;;;;;5036410;28;20056;-64
2022/08/10 00:36:27;;;;;;;23.08;3.80;;;35.70;52.50;;;;;;5038800;28;20030;-64
2022/08/10 00:38:54;;;;;;;14.02;2.40;;;35.80;53.60;;;;;;5032454;28;20149;-62
2022/08/10 00:41:20;;;;;;;14.70;2.63;;;35.60;51.90;;;;;;5063014;28;20030;-64
2022/08/10 00:43:46;;;;;;;12.77;2.65;;;35.30;67.50;;;;;;5036435;28;20049;-65
2022/08/10 00:46:13;;;;;;;10.80;2.70;;;35.10;66.90;;;;;;5034897;28;20055;-64
2022/08/10 00:48:39;;;;;;;9.65;2.40;;;;;;;;;;5034958;28;20543;-63
2022/08/10 00:51:06;;;;;;;7.57;2.10;;;35.30;65.70;;;;;;5038316;28;20073;-63
2022/08/10 00:53:32;;;;;;;15.63;2.38;;;35.20;52.20;;;;;;5038384;28;20416;-64
2022/08/10 00:55:59;;;;;;;11.77;2.60;;;35.30;62.20;;;;;;5046389;28;20052;-64
2022/08/10 00:58:25;;;;;;;11.23;2.70;;;35.50;69.60;;;;;;5034322;28;20150;-62
2022/08/10 01:00:52;;;;;;;15.68;5.38;;;35.60;59.80;;;;;;5035680;28;20686;-66
2022/08/10 01:03:18;;;;;;;19.30;2.55;;;35.70;59.60;;;;;;5034527;28;20136;-64
2022/08/10 01:06:00;;;;;;;14.82;2.10;;;34.90;61.30;;;;;;5035748;28;20029;-63
2022/08/10 01:08:50;;;;;;;11.43;2.30;;;35.80;49.00;;;;;;5019169;28;21444;-63
2022/08/10 01:11:27;;;;;;;11.73;2.25;;;35.90;48.90;;;;;;5021565;28;20045;-63
2022/08/10 01:14:18;;;;;;;12.50;2.30;;;35.60;68.20;;;;;;5039655;28;20049;-63
2022/08/10 01:16:56;;;;;;;13.63;2.50;;;35.80;59.30;;;;;;5037451;28;20071;-64
2022/08/10 01:19:41;;;;;;;10.60;2.15;;;35.40;58.70;;;;;;5019579;28;20088;-65
2022/08/10 01:22:14;;;;;;;9.75;1.98;;;35.80;66.60;;;;;;5038481;28;20039;-66
2022/08/10 01:25:16;;;;;;;15.55;2.22;;;36.20;46.30;;;;;;5023536;28;20049;-64
2022/08/10 01:28:15;;;;;;;12.40;2.28;;;36.60;71.10;;;;;;5033354;28;20056;-64
2022/08/10 01:30:45;;;;;;;11.88;1.70;;;36.30;45.30;;;;;;4953032;28;20605;-64
2022/08/10 01:33:30;;;;;;;10.77;2.30;;;36.30;58.00;;;;;;4953099;28;20542;-66
2022/08/10 01:36:11;;;;;;;15.60;2.38;;;36.40;44.20;;;;;;4937409;28;20033;-63
2022/08/10 01:38:45;;;;;;;9.35;2.30;;;36.40;43.60;;;;;;4938144;28;20125;-64
2022/08/10 01:41:46;;;;;;;4.88;1.60;;;36.60;53.90;;;;;;4953107;28;20387;-63
2022/08/10 01:44:17;;;;;;;8.55;2.10;;;36.50;55.40;;;;;;4967117;28;20133;-63
2022/08/10 01:46:55;;;;;;;6.38;2.33;;;36.60;42.30;;;;;;4953025;28;20041;-64
2022/08/10 01:49:23;;;;;;;9.77;3.30;;;36.60;43.70;;;;;;4953112;28;20039;-63
2022/08/10 01:51:54;;;;;;;9.63;2.70;;;36.60;42.50;;;;;;4950835;28;20031;-62
2022/08/10 01:54:23;;;;;;;10.25;3.20;;;36.50;52.20;;;;;;4969540;28;20066;-64
2022/08/10 01:56:55;;;;;;;10.50;2.15;;;36.30;48.10;;;;;;4954089;28;20114;-64
2022/08/10 01:59:28;;;;;;;9.32;2.30;;;36.60;42.20;;;;;;4952134;28;20594;-64
2022/08/10 02:02:00;;;;;;;9.68;2.10;;;36.90;56.50;;;;;;4968356;28;20667;-66
2022/08/10 02:04:30;;;;;;;8.60;2.28;;;36.60;41.70;;;;;;4971128;28;20109;-64
2022/08/10 02:07:00;;;;;;;11.70;2.10;;;35.80;44.10;;;;;;5025327;28;21758;-62
2022/08/10 02:09:29;;;;;;;15.75;2.53;;;36.00;56.50;;;;;;5038702;28;20032;-63
2022/08/10 02:12:01;;;;;;;13.30;2.50;;;36.50;56.00;;;;;;5028730;28;20040;-63
2022/08/10 02:14:47;;;;;;;11.13;2.25;;;36.60;43.30;;;;;;5017281;28;20041;-62
2022/08/10 02:17:24;;;;;;;9.05;2.65;;;36.60;60.30;;;;;;5035795;28;20538;-62
2022/08/10 02:19:52;;;;;;;9.57;2.33;;;36.20;47.20;;;;;;5060588;22;20140;-62
2022/08/10 02:22:21;;;;;;;13.95;2.65;;;36.80;57.00;;;;;;5032377;28;20025;-63
2022/08/10 02:24:48;;;;;;;10.77;2.85;;;36.50;44.40;;;;;;5047433;28;20463;-65
2022/08/10 02:27:16;;;;;;;17.73;2.80;;;36.50;61.00;;;;;;5009172;28;20132;-67
2022/08/10 02:29:44;;;;;;;15.10;2.63;;;36.40;42.90;;;;;;5019778;28;20032;-73
2022/08/10 02:32:13;;;;;;;13.80;2.97;;;36.10;62.50;;;;;;5038933;28;20036;-68
2022/08/10 02:34:41;;;;;;;17.33;3.00;;;36.30;43.50;;;;;;5020895;28;20168;-66
2022/08/10 02:37:08;;;;;;;11.82;3.28;;;35.70;49.60;;;;;;5030580;28;20022;-66
2022/08/10 02:39:35;;;;;;;21.02;4.65;;;36.40;60.70;;;;;;5037553;28;20077;-66
2022/08/10 02:42:10;;;;;;;8.30;3.17;;;36.30;44.50;;;;;;5044961;28;20028;-72
2022/08/10 02:44:43;;;;;;;13.77;3.40;;;36.80;43.90;;;;;;5032592;28;20030;-67
2022/08/10 02:47:38;;;;;;;18.33;3.55;;;36.20;43.60;;;;;;5041999;28;20035;-68
2022/08/10 02:50:30;;;;;;;18.85;3.65;;;36.10;43.40;;;;;;5030985;28;20044;-64
2022/08/10 02:53:13;;;;;;;16.02;3.30;;;36.00;48.40;;;;;;5013990;28;20025;-68
2022/08/10 02:55:51;;;;;;;10.93;3.20;;;35.90;65.30;;;;;;5031612;28;20025;-65
2022/08/10 02:58:28;;;;;;;17.88;3.45;;;35.80;67.10;;;;;;5042635;28;20507;-73
2022/08/10 03:00:56;;;;;;;17.83;3.58;;;36.20;72.40;;;;;;5034517;28;20029;-66
2022/08/10 03:03:30;;;;;;;22.65;3.60;;;36.10;69.60;;;;;;5042952;28;20040;-72
2022/08/10 03:06:01;;;;;;;24.00;4.70;;;36.10;44.00;;;;;;5032824;28;20025;-66
2022/08/10 03:08:32;;;;;;;19.75;4.07;;;36.00;74.40;;;;;;5032458;28;20032;-67
2022/08/10 03:11:02;;;;;;;18.17;3.85;;;36.00;44.40;;;;;;5032954;28;20022;-64
2022/08/10 03:13:31;;;;;;;23.20;3.90;;;36.10;44.40;;;;;;5040967;28;20696;-68
2022/08/10 03:16:00;;;;;;;14.80;3.78;;;36.00;69.50;;;;;;5040619;28;20045;-67
2022/08/10 03:18:28;;;;;;;14.20;3.60;;;36.00;69.30;;;;;;5042313;28;20032;-68
2022/08/10 03:20:55;;;;;;;20.73;4.35;;;;;;;;;;5033147;28;20059;-67
2022/08/10 03:23:24;;;;;;;14.80;3.40;;;36.00;44.90;;;;;;5027600;28;20405;-67
2022/08/10 03:25:54;;;;;;;19.05;3.67;;;35.20;70.90;;;;;;4993990;28;20037;-65
2022/08/10 03:28:23;;;;;;;22.63;3.67;;;35.90;45.40;;;;;;5031028;28;20509;-67
2022/08/10 03:30:53;;;;;;;12.27;3.22;;;36.00;71.30;;;;;;5010149;28;20068;-68
2022/08/10 03:33:21;;;;;;;17.88;3.58;;;36.00;45.30;;;;;;5029179;28;20546;-67
2022/08/10 03:35:48;;;;;;;25.08;3.17;;;35.70;65.00;;;;;;5032991;28;20021;-73
2022/08/10 03:38:15;;;;;;;19.38;3.83;;;;;;;;;;5037257;28;20476;-67
2022/08/10 03:40:44;;;;;;;16.17;3.58;;;35.90;57.70;;;;;;5034113;28;20048;-64
2022/08/10 03:43:20;;;;;;;18.02;3.63;;;35.60;60.10;;;;;;5029630;28;20044;-66
2022/08/10 03:45:52;;;;;;;13.73;3.33;;;34.80;66.70;;;;;;5029466;28;20055;-63
2022/08/10 03:48:20;;;;;;;10.32;3.25;;;35.60;67.00;;;;;;5030598;28;20036;-70
2022/08/10 03:50:48;;;;;;;19.90;3.70;;;35.70;46.10;;;;;;5034373;28;20026;-69
2022/08/10 03:53:15;;;;;;;18.60;3.47;;;35.90;66.80;;;;;;5032020;28;20056;-63
2022/08/10 03:55:42;;;;;;;14.75;3.65;;;35.10;58.50;;;;;;5016272;28;20467;-62
2022/08/10 03:58:10;;;;;;;15.27;4.10;;;35.80;66.30;;;;;;5011055;28;20046;-66
2022/08/10 04:00:37;;;;;;;14.98;3.85;;;35.60;54.80;;;;;;5034269;28;20031;-63
2022/08/10 04:03:05;;;;;;;13.68;3.70;;;35.60;65.90;;;;;;5032577;28;20020;-64
2022/08/10 04:05:33;;;;;;;24.50;3.88;;;35.70;61.00;;;;;;5026938;28;20071;-64
2022/08/10 04:08:00;;;;;;;9.95;3.60;;;35.60;51.60;;;;;;5031378;28;20075;-67
2022/08/10 04:10:27;;;;;;;10.80;3.60;;;35.40;67.70;;;;;;5030228;28;20369;-64
2022/08/10 04:12:54;;;;;;;14.10;3.55;;;35.40;46.50;;;;;;5032898;28;20072;-64
2022/08/10 04:15:23;;;;;;;14.73;3.70;;;35.20;59.50;;;;;;5032729;28;20130;-65
2022/08/10 04:17:50;;;;;;;20.30;3.63;;;35.40;63.50;;;;;;5027648;28;20117;-64
2022/08/10 04:20:30;;;;;;;11.63;3.38;;;35.90;64.50;;;;;;5024947;28;20535;-66
2022/08/10 04:23:02;;;;;;;20.02;3.60;;;34.90;64.80;;;;;;5033574;28;20040;-65
2022/08/10 04:25:29;;;;;;;18.23;4.35;;;35.70;70.10;;;;;;5037993;28;20120;-64
2022/08/10 04:27:56;;;;;;;23.90;3.80;;;35.30;73.60;;;;;;5032623;28;20061;-65
2022/08/10 04:30:23;;;;;;;16.25;4.65;;;35.20;71.90;;;;;;5030691;28;20485;-65
2022/08/10 04:32:53;;;;;;;21.05;4.22;;;35.40;56.60;;;;;;5015421;28;20029;-67
2022/08/10 04:35:21;;;;;;;21.40;3.95;;;35.30;49.60;;;;;;5035845;28;20116;-63
2022/08/10 04:37:50;;;;;;;23.05;3.60;;;35.20;49.60;;;;;;5040104;28;20532;-64
2022/08/10 04:40:18;;;;;;;22.45;3.92;;;35.20;48.30;;;;;;5033821;28;20038;-64
2022/08/10 04:42:46;;;;;;;17.55;3.50;;;35.00;73.90;;;;;;5011537;28;20033;-64
2022/08/10 04:45:17;;;;;;;14.90;3.42;;;35.40;50.40;;;;;;5034573;28;20091;-64
2022/08/10 04:47:43;;;;;;;15.25;3.28;;;35.20;74.00;;;;;;5035920;28;20032;-63
2022/08/10 04:50:10;;;;;;;18.88;3.78;;;35.30;75.80;;;;;;5037288;28;20056;-63
2022/08/10 04:52:37;;;;;;;11.52;3.88;;;;;;;;;;5037212;28;20075;-64
2022/08/10 04:55:04;;;;;;;13.57;4.00;;;34.90;71.00;;;;;;5031146;28;20037;-66
2022/08/10 04:57:30;;;;;;;15.20;4.25;;;34.40;73.50;;;;;;5034256;28;20028;-65
2022/08/10 04:59:57;;;;;;;12.23;3.80;;;34.50;51.40;;;;;;5032904;28;20432;-66
2022/08/10 05:02:23;;;;;;;14.65;4.25;;;;;;;;;;5035120;28;20032;-64
2022/08/10 05:04:49;;;;;;;15.18;3.13;;;35.10;77.80;;;;;;5033024;28;20516;-64
2022/08/10 05:07:16;;;;;;;7.20;3.28;;;34.70;50.40;;;;;;5039696;28;20454;-65
2022/08/10 05:09:43;;;;;;;15.35;3.97;;;34.80;50.30;;;;;;5035756;28;20026;-63
2022/08/10 05:12:10;;;;;;;13.90;3.72;;;34.60;73.60;;;;;;5028003;28;20167;-64
2022/08/10 05:14:36;;;;;;;12.77;4.18;;;;;;;;;;5032451;28;20071;-62
2022/08/10 05:17:03;;;;;;;13.07;3.60;;;34.70;73.80;;;;;;5031356;28;20474;-65
2022/08/10 05:19:29;;;;;;;17.17;3.35;;;34.50;75.30;;;;;;5033058;28;20041;-65
2022/08/10 05:21:56;;;;;;;9.15;2.95;;;33.60;51.90;;;;;;5039006;28;20429;-65
2022/08/10 05:24:22;;;;;;;7.60;3.03;;;34.50;75.00;;;;;;5039314;28;20389;-64
2022/08/10 05:26:48;;;;;;;12.70;3.58;;;34.30;69.20;;;;;;5011216;28;20484;-65
2022/08/10 05:29:15;;;;;;;12.73;2.47;;;34.60;60.80;;;;;;5031569;28;20454;-66
2022/08/10 05:31:41;;;;;;;11.93;3.85;;;34.50;80.80;;;;;;5035523;28;20021;-64
2022/08/10 05:34:08;;;;;;;9.95;2.50;;;34.50;85.10;;;;;;5027320;28;20070;-64
2022/08/10 05:36:35;;;;;;;9.45;3.00;;;34.40;82.30;;;;;;5034040;28;20021;-66
2022/08/10 05:39:02;;;;;;;9.00;2.90;;;;;;;;;;5009373;28;20034;-66
2022/08/10 05:41:30;;;;;;;8.90;2.25;;;34.20;59.10;;;;;;5025738;28;20047;-64
2022/08/10 05:43:56;;;;;;;11.43;2.80;;;;;;;;;;5035445;28;20083;-66
2022/08/10 05:46:22;;;;;;;4.90;2.40;;;34.20;74.40;;;;;;5030387;28;20060;-65
2022/08/10 05:48:49;;;;;;;8.02;2.40;;;;;;;;;;5033801;28;20074;-64
2022/08/10 05:51:16;;;;;;;12.57;2.78;;;34.10;73.40;;;;;;5013517;28;20068;-63
2022/08/10 05:53:43;;;;;;;13.90;6.53;;;34.00;77.50;;;;;;5035705;28;20035;-62
2022/08/10 05:56:10;;;;;;;17.58;12.57;;;34.00;78.60;;;;;;5037069;28;20052;-64
2022/08/10 05:58:38;;;;;;;9.93;3.67;;;33.80;58.60;;;;;;5033118;28;20096;-62
2022/08/10 06:01:13;;;;;;;7.72;2.70;;;33.80;77.40;;;;;;5033814;28;20021;-63
2022/08/10 06:03:48;;;;;;;17.38;3.08;;;33.90;77.50;;;;;;5023272;28;20041;-64
2022/08/10 06:06:18;;;;;;;11.00;2.70;;;33.80;56.80;;;;;;5029114;28;20040;-63
2022/08/10 06:08:46;;;;;;;8.38;2.65;;;33.80;73.70;;;;;;5032309;28;20132;-64
2022/08/10 06:11:15;;;;;;;7.65;2.50;;;33.70;73.60;;;;;;5033011;28;20035;-64
2022/08/10 06:16:33;;;;;;;11.82;2.70;;;33.80;78.00;;;;;;5033688;28;20037;-65
2022/08/10 06:19:01;;;;;;;10.70;3.00;;;33.70;75.90;;;;;;5031561;28;20030;-64
2022/08/10 06:21:27;;;;;;;10.10;2.95;;;33.70;56.60;;;;;;5033634;28;20087;-64
2022/08/10 06:23:55;;;;;;;7.47;3.10;;;33.50;77.80;;;;;;5030288;28;20033;-65
2022/08/10 06:26:21;;;;;;;13.38;3.60;;;33.60;77.00;;;;;;5029453;28;20550;-66
2022/08/10 06:28:55;;;;;;;9.70;3.28;;;33.60;56.30;;;;;;5036559;28;20033;-66
2022/08/10 06:31:24;;;;;;;15.32;4.53;;;33.60;65.10;;;;;;5026314;28;20043;-64
2022/08/10 06:33:51;;;;;;;11.10;2.88;;;33.50;69.10;;;;;;5031358;28;20048;-63
2022/08/10 06:36:20;;;;;;;10.20;3.35;;;33.50;71.80;;;;;;5031304;28;20740;-66
2022/08/10 06:38:47;;;;;;;9.35;3.28;;;33.30;71.30;;;;;;5033436;28;20065;-64
2022/08/10 06:41:21;;;;;;;6.78;2.80;;;33.10;73.20;;;;;;5029900;28;20048;-67
2022/08/10 06:43:56;;;;;;;12.07;2.75;;;33.40;75.00;;;;;;5031178;28;20081;-65
2022/08/10 06:46:25;;;;;;;8.27;2.83;;;33.40;72.00;;;;;;5032072;28;20054;-64
2022/08/10 06:48:56;;;;;;;12.88;3.38;;;33.30;56.20;;;;;;5034949;28;20071;-65
2022/08/10 06:51:31;;;;;;;14.02;3.00;;;33.30;56.80;;;;;;5030344;28;20064;-65
2022/08/10 06:54:05;;;;;;;12.23;3.05;;;33.40;69.70;;;;;;5031710;28;20447;-64
2022/08/10 06:56:35;;;;;;;9.57;2.60;;;33.20;73.00;;;;;;5029635;28;20423;-63
2022/08/10 06:59:15;;;;;;;9.27;2.97;;;33.20;71.10;;;;;;5011726;28;20061;-64
2022/08/10 07:01:46;;;;;;;9.13;2.60;;;33.20;56.30;;;;;;5011057;28;20058;-65
2022/08/10 07:04:20;;;;;;;10.73;2.75;;;33.10;56.70;;;;;;5028297;28;20054;-62
2022/08/10 07:06:49;;;;;;;9.38;3.40;;;33.20;56.10;;;;;;5020743;28;20050;-63
2022/08/10 07:09:17;;;;;;;5.75;2.65;;;33.10;67.70;;;;;;5024979;28;20426;-65
2022/08/10 07:11:46;;;;;;;9.75;2.28;;;33.60;68.90;;;;;;5030736;28;20058;-64
2022/08/10 07:14:14;;;;;;;5.30;2.03;;;33.00;56.30;;;;;;5027537;28;20117;-64
2022/08/10 07:16:43;;;;;;;10.85;1.98;;;33.10;54.50;;;;;;5032515;28;20056;-66
2022/08/10 07:19:10;;;;;;;10.73;2.33;;;33.00;56.10;;;;;;5038273;28;20116;-65
2022/08/10 07:21:39;;;;;;;7.30;1.73;;;33.20;67.30;;;;;;5030975;28;20462;-63
2022/08/10 07:24:08;;;;;;;7.40;1.90;;;32.90;67.00;;;;;;5034974;28;20092;-64
2022/08/10 07:26:37;;;;;;;9.50;2.05;;;33.30;70.10;;;;;;5036672;28;20182;-65
2022/08/10 07:29:05;;;;;;;7.50;1.98;;;33.10;69.80;;;;;;5031948;28;20142;-66
2022/08/10 07:31:33;;;;;;;5.32;1.60;;;33.00;70.80;;;;;;5026855;28;20066;-64
2022/08/10 07:34:01;;;;;;;7.97;2.42;;;32.80;68.20;;;;;;5010333;28;20054;-63
2022/08/10 07:36:29;;;;;;;6.90;1.95;;;33.10;68.20;;;;;;5024794;28;20055;-64
2022/08/10 07:38:59;;;;;;;9.23;2.05;;;33.00;52.10;;;;;;5034650;28;20503;-64
2022/08/10 07:41:30;;;;;;;7.15;2.10;;;32.90;62.90;;;;;;5032714;28;20042;-64
2022/08/10 07:43:58;;;;;;;11.20;2.45;;;33.20;67.80;;;;;;5031929;28;20148;-64
2022/08/10 07:46:27;;;;;;;10.43;2.08;;;33.10;65.10;;;;;;5034201;28;20153;-67
2022/08/10 07:49:06;;;;;;;6.43;2.35;;;32.80;55.30;;;;;;5029913;28;20434;-64
2022/08/10 07:51:33;;;;;;;6.78;2.28;;;32.90;70.00;;;;;;5029944;28;20048;-64
2022/08/10 07:54:04;;;;;;;8.50;2.10;;;32.90;66.80;;;;;;5031195;28;20395;-66
2022/08/10 07:56:33;;;;;;;8.70;2.00;;;33.00;58.50;;;;;;5030560;28;20516;-64
2022/08/10 07:59:08;;;;;;;5.75;2.15;;;32.80;68.80;;;;;;5037776;28;20076;-67
2022/08/10 08:01:39;;;;;;;6.18;2.25;;;32.70;67.60;;;;;;5035048;28;20135;-64
2022/08/10 08:04:08;;;;;;;9.00;2.00;;;32.80;52.90;;;;;;5039703;28;20058;-64
2022/08/10 08:06:36;;;;;;;13.48;2.55;;;32.80;66.30;;;;;;5040186;28;20112;-65
2022/08/10 08:09:03;;;;;;;22.85;4.13;;;33.10;72.30;;;;;;5038569;28;20094;-64
2022/08/10 08:11:30;;;;;;;15.80;3.75;;;32.80;73.60;;;;;;5031702;28;20053;-67
2022/08/10 08:13:59;;;;;;;21.67;5.10;;;32.60;69.90;;;;;;5033929;28;20433;-64
2022/08/10 08:16:26;;;;;;;20.90;4.40;;;32.80;56.90;;;;;;5023582;28;20172;-64
2022/08/10 08:18:55;;;;;;;14.77;4.07;;;32.70;72.50;;;;;;5033982;28;20041;-64
2022/08/10 08:21:22;;;;;;;13.23;3.80;;;32.80;73.60;;;;;;5034789;28;20136;-65
2022/08/10 08:23:50;;;;;;;13.40;4.10;;;32.90;72.60;;;;;;5034174;28;20058;-65
2022/08/10 08:26:18;;;;;;;11.07;4.22;;;32.80;67.60;;;;;;5037380;28;20237;-64
2022/08/10 08:28:47;;;;;;;15.57;4.25;;;32.90;70.90;;;;;;5036975;28;20110;-62
2022/08/10 08:31:15;;;;;;;11.80;3.28;;;32.60;78.80;;;;;;5011399;28;20067;-63
2022/08/10 08:33:44;;;;;;;11.35;3.53;;;33.20;85.20;;;;;;5029884;28;20518;-64
2022/08/10 08:36:15;;;;;;;7.82;3.22;;;32.50;55.90;;;;;;5036632;28;20028;-64
2022/08/10 08:38:43;;;;;;;8.15;3.47;;;32.40;71.80;;;;;;5031536;28;20161;-66
2022/08/10 08:41:35;;;;;;;15.30;3.20;;;32.50;79.90;;;;;;5012628;28;20097;-65
2022/08/10 08:44:02;;;;;;;14.80;3.35;;;;;;;;;;5032370;28;20040;-66
2022/08/10 08:46:42;;;;;;;17.77;3.50;;;32.60;72.80;;;;;;5040108;28;20025;-65
2022/08/10 08:49:33;;;;;;;10.02;3.10;;;32.70;69.80;;;;;;5035627;28;20076;-64
2022/08/10 08:52:03;;;;;;;11.25;3.08;;;33.20;54.10;;;;;;5030863;28;20067;-64
2022/08/10 08:54:29;;;;;;;8.85;3.13;;;;;;;;;;5035366;28;20108;-66
2022/08/10 08:57:20;;;;;;;9.77;3.10;;;32.90;67.90;;;;;;5032093;28;20530;-64
2022/08/10 09:00:00;;;;;;;12.32;3.22;;;32.80;68.10;;;;;;5034750;28;20073;-68
2022/08/10 09:02:54;;;;;;;7.13;2.72;;;32.80;68.80;;;;;;5035897;28;20048;-64
2022/08/10 09:05:53;;;;;;;13.18;3.05;;;32.90;71.60;;;;;;5028912;28;20057;-65
2022/08/10 09:08:44;;;;;;;12.93;3.08;;;33.00;74.50;;;;;;5036549;28;20041;-63
2022/08/10 09:11:35;;;;;;;13.30;2.97;;;32.50;70.90;;;;;;5027610;28;20034;-64
2022/08/10 09:14:17;;;;;;;7.72;2.60;;;33.00;80.20;;;;;;5032330;28;20071;-64
2022/08/10 09:17:11;;;;;;;13.20;3.13;;;32.70;55.20;;;;;;5037068;28;20556;-65
2022/08/10 09:20:18;;;;;;;15.10;3.30;;;32.70;74.40;;;;;;5030477;28;20103;-65
2022/08/10 09:23:17;;;;;;;7.80;2.80;;;32.80;84.10;;;;;;4958343;28;20152;-64
2022/08/10 09:25:53;;;;;;;8.98;2.58;;;32.70;81.50;;;;;;4969527;28;20066;-66
2022/08/10 09:28:25;;;;;;;11.25;3.30;;;32.70;84.50;;;;;;4935888;28;20042;-65
2022/08/10 09:30:59;;;;;;;12.45;3.25;;;32.80;79.70;;;;;;4937857;28;20413;-66
2022/08/10 09:34:01;;;;;;;12.88;3.20;;;32.70;91.30;;;;;;4953985;28;20019;-64
2022/08/10 09:36:49;;;;;;;12.30;3.60;;;32.70;76.10;;;;;;4936073;28;20095;-64
2022/08/10 09:39:30;;;;;;;11.27;3.08;;;32.50;77.00;;;;;;4951762;28;20119;-63
2022/08/10 09:42:23;;;;;;;7.93;2.97;;;33.30;76.20;;;;;;4969337;28;20069;-64
2022/08/10 09:44:50;;;;;;;11.50;3.47;;;;;;;;;;4968512;28;20561;-64
2022/08/10 09:47:46;;;;;;;11.13;3.42;;;32.30;74.80;;;;;;4969899;28;20069;-64
2022/08/10 09:50:28;;;;;;;12.13;3.40;;;32.50;61.20;;;;;;4967869;28;20134;-64
2022/08/10 09:53:13;;;;;;;14.07;3.38;;;32.20;76.90;;;;;;4967780;28;20076;-62
2022/08/10 09:56:14;;;;;;;10.38;3.13;;;32.40;77.70;;;;;;4952304;28;20160;-63
2022/08/10 09:58:58;;;;;;;7.07;2.97;;;32.20;80.20;;;;;;4968066;28;20467;-64
2022/08/10 10:01:41;;;;;;;9.43;3.60;;;32.20;83.40;;;;;;5000573;28;20165;-64
2022/08/10 10:04:28;;;;;;;10.75;3.20;;;32.00;69.20;;;;;;5014429;28;20067;-66
2022/08/10 10:06:57;;;;;;;7.72;3.22;;;32.20;85.00;;;;;;5026585;28;20089;-63
2022/08/10 10:09:29;;;;;;;12.70;3.15;;;32.20;83.00;;;;;;4998177;28;20088;-64
2022/08/10 10:12:18;;;;;;;12.60;3.08;;;32.00;81.70;;;;;;5008555;28;20151;-64
2022/08/10 10:15:19;;;;;;;13.02;3.35;;;32.10;79.80;;;;;;5011830;28;20065;-64
2022/08/10 10:18:01;;;;;;;13.85;3.28;;;32.20;82.30;;;;;;5011972;28;20078;-63
2022/08/10 10:21:14;;;;;;;8.35;2.70;;;32.20;81.10;;;;;;5030151;28;20097;-63
2022/08/10 10:24:02;;;;;;;14.07;3.53;;;32.70;83.60;;;;;;5031376;28;20526;-64
2022/08/10 10:26:57;;;;;;;7.07;2.70;;;32.10;69.00;;;;;;5033108;28;20083;-64
2022/08/10 10:29:44;;;;;;;5.75;2.95;;;32.10;69.40;;;;;;5032161;28;20086;-66
2022/08/10 10:32:48;;;;;;;11.75;3.00;;;32.10;69.80;;;;;;5032016;28;20544;-65
2022/08/10 10:35:33;;;;;;;11.15;2.90;;;32.10;69.60;;;;;;5031037;28;20077;-64
2022/08/10 10:38:03;;;;;;;9.13;2.85;;;32.00;69.70;;;;;;5030404;28;20518;-63
2022/08/10 10:41:06;;;;;;;9.38;2.72;;;32.00;70.00;;;;;;5030284;28;20536;-66
2022/08/10 10:43:53;;;;;;;7.10;2.20;;;32.00;70.70;;;;;;5032454;28;20166;-64
2022/08/10 10:46:38;;;;;;;8.13;3.03;;;32.00;70.70;;;;;;5034021;28;20078;-64
2022/08/10 10:49:34;;;;;;;8.38;2.53;;;32.00;71.20;;;;;;5032490;28;20663;-64
2022/08/10 10:52:38;;;;;;;9.00;2.35;;;31.50;81.30;;;;;;5032784;28;20082;-64
2022/08/10 10:55:23;;;;;;;8.90;3.00;;;31.90;72.60;;;;;;5030477;28;20056;-65
2022/08/10 10:58:03;;;;;;;7.15;2.63;;;31.90;84.90;;;;;;5031110;28;20148;-64
2022/08/10 11:00:45;;;;;;;11.27;2.85;;;31.90;74.30;;;;;;5035271;28;20407;-65
2022/08/10 11:03:48;;;;;;;8.80;2.50;;;31.80;74.60;;;;;;5034943;28;20590;-64
2022/08/10 11:06:44;;;;;;;6.70;2.33;;;31.80;75.00;;;;;;5031409;28;20079;-66
2022/08/10 11:09:31;;;;;;;7.97;2.58;;;31.50;88.70;;;;;;5030775;28;20176;-62
2022/08/10 11:12:02;;;;;;;6.40;2.13;;;31.80;76.00;;;;;;5009934;28;20521;-63
2022/08/10 11:14:36;;;;;;;6.43;2.20;;;31.80;76.50;;;;;;5014710;28;20092;-64
2022/08/10 11:17:20;;;;;;;8.98;2.42;;;31.90;76.60;;;;;;5030178;28;20077;-64
2022/08/10 11:20:24;;;;;;;6.75;2.63;;;31.80;77.40;;;;;;5010641;28;20228;-64
2022/08/10 11:23:17;;;;;;;9.30;2.63;;;31.80;77.90;;;;;;4969096;28;20082;-63
2022/08/10 11:25:58;;;;;;;11.98;2.30;;;31.80;78.30;;;;;;4955297;28;20089;-65
2022/08/10 11:28:40;;;;;;;6.20;2.40;;;31.70;78.70;;;;;;4952889;28;20072;-64
2022/08/10 11:31:26;;;;;;;7.97;2.88;;;31.70;79.80;;;;;;4970649;28;20067;-64
2022/08/10 11:34:30;;;;;;;7.05;2.55;;;31.70;80.80;;;;;;4970048;28;20546;-64
2022/08/10 11:37:18;;;;;;;6.93;2.90;;;31.60;80.60;;;;;;4922494;29;20092;-64
2022/08/10 11:39:54;;;;;;;13.60;2.90;;;31.60;82.10;;;;;;4909380;29;20269;-65
2022/08/10 11:42:30;;;;;;;;;;;31.50;82.30;;;;;;4878626;29;20103;-65
2022/08/10 11:45:07;;;;;;;9.98;2.83;;;31.50;83.30;;;;;;4894372;29;19986;-65
2022/08/10 11:47:46;;;;;;;13.80;3.50;;;31.30;92.10;;;;;;4926329;29;20058;-64
2022/08/10 11:50:32;;;;;;;9.40;3.08;;;31.40;84.60;;;;;;4924082;29;20077;-66
2022/08/10 11:53:17;;;;;;;11.07;2.67;;;31.40;85.30;;;;;;4894212;29;20077;-64
2022/08/10 11:55:48;;;;;;;10.80;2.58;;;31.40;86.10;;;;;;4910612;29;20164;-67
2022/08/10 12:01:05;;;;;;;10.55;3.17;;;31.40;87.00;;;;;;4948498;28;20180;-65
2022/08/10 12:03:35;;;;;;;11.23;3.33;;;31.40;87.20;;;;;;4948609;28;20490;-65
2022/08/10 12:06:03;;;;;;;12.40;3.40;;;31.30;87.60;;;;;;4948085;28;20176;-65
2022/08/10 12:08:30;;;;;;;12.85;3.28;;;31.30;88.20;;;;;;4932055;28;20526;-65
2022/08/10 12:10:58;;;;;;;11.35;2.60;;;31.30;88.30;;;;;;4946496;28;20065;-64
2022/08/10 12:13:30;;;;;;;7.50;2.63;;;31.20;88.40;;;;;;4992205;28;20157;-64
2022/08/10 12:16:01;;;;;;;14.68;3.60;;;31.20;88.00;;;;;;5032523;28;20067;-64
2022/08/10 12:18:57;;;;;;;7.97;2.50;;;31.10;88.40;;;;;;5035833;28;20052;-65
2022/08/10 12:21:42;;;;;;;8.80;2.95;;;31.10;89.10;;;;;;5000624;28;20107;-64
2022/08/10 12:24:17;;;;;;;10.60;2.50;;;31.10;89.30;;;;;;5034165;28;20518;-63
2022/08/10 12:26:49;;;;;;;10.17;2.90;;;31.10;89.20;;;;;;5033108;28;20070;-66
2022/08/10 12:29:27;;;;;;;7.15;2.50;;;31.10;89.10;;;;;;5026150;28;20845;-64
2022/08/10 12:32:04;;;;;;;8.27;2.78;;;31.10;89.00;;;;;;5034202;28;20486;-64
2022/08/10 12:34:47;;;;;;;12.15;3.13;;;31.10;88.90;;;;;;5026638;28;20132;-63
2022/08/10 12:37:42;;;;;;;11.93;3.05;;;30.60;95.60;;;;;;5009759;28;20089;-64
2022/08/10 12:40:26;;;;;;;11.68;3.30;;;31.10;89.00;;;;;;5024969;28;20174;-64
2022/08/10 12:43:11;;;;;;;9.77;2.78;;;31.00;88.70;;;;;;5031198;28;20082;-64
2022/08/10 12:46:01;;;;;;;6.95;2.80;;;31.00;88.80;;;;;;5035775;28;20714;-64
2022/08/10 12:48:55;;;;;;;10.25;3.20;;;31.00;89.20;;;;;;5032823;28;20075;-64
2022/08/10 12:51:29;;;;;;;12.23;3.20;;;31.20;99.90;;;;;;5034959;28;20118;-62
2022/08/10 12:54:10;;;;;;;11.25;3.20;;;30.90;93.70;;;;;;5036433;28;20467;-63
2022/08/10 12:56:44;;;;;;;12.10;3.03;;;31.00;89.40;;;;;;5035940;28;20074;-65
2022/08/10 12:59:12;;;;;;;15.75;3.47;;;30.90;89.70;;;;;;5034093;28;20098;-63
2022/08/10 13:01:40;;;;;;;9.38;3.22;;;31.00;90.00;;;;;;5033234;28;20161;-65
2022/08/10 13:04:10;;;;;;;11.00;2.95;;;31.00;90.00;;;;;;5027641;28;20069;-63
2022/08/10 13:06:45;;;;;;;9.23;3.30;;;30.90;90.20;;;;;;5038016;28;20076;-66
2022/08/10 13:09:20;;;;;;;10.38;3.38;;;30.90;90.20;;;;;;5035971;28;20080;-63
2022/08/10 13:11:49;;;;;;;11.90;3.65;;;31.00;90.30;;;;;;5033629;28;20523;-66
2022/08/10 13:14:27;;;;;;;13.75;3.85;;;31.00;90.40;;;;;;5035557;28;20169;-64
2022/08/10 13:16:57;;;;;;;14.15;3.55;;;30.60;95.20;;;;;;5038424;28;20437;-64
2022/08/10 13:19:26;;;;;;;14.00;3.38;;;30.90;90.70;;;;;;5034276;28;20453;-64
2022/08/10 13:21:55;;;;;;;14.80;3.63;;;30.90;90.70;;;;;;5031427;28;20090;-65
2022/08/10 13:24:35;;;;;;;7.55;3.63;;;30.90;91.10;;;;;;5033091;28;20084;-63
2022/08/10 13:27:14;;;;;;;10.07;3.08;;;31.00;91.20;;;;;;5036520;28;20423;-65